Date,TemperatureHighF,TemperatureAvgF,TemperatureLowF,DewpointHighF,DewpointAvgF,DewpointLowF,HumidityHigh,HumidityAvg,HumidityLow,PressureMaxIn,PressureMinIn,WindSpeedMaxMPH,WindSpeedAvgMPH,GustSpeedMaxMPH,PrecipitationSumIn
2013-1-1,42.0,37.3,32.8,40.7,35.7,30.6,96,94,90,30.24,30.02,8,1,10,0.31
2013-1-2,38.2,34.4,31.9,36.6,31.2,29.1,94,88,78,30.24,30.04,7,2,11,0.02
2013-1-3,37.2,31.2,23.5,30.3,26.6,21.5,93,84,56,30.38,30.21,7,1,10,0.00
2013-1-4,35.1,29.1,21.3,25.3,22.5,18.3,92,76,64,30.47,30.38,8,3,12,0.00
2013-1-5,41.5,29.9,17.8,32.0,24.7,15.9,100,82,58,30.54,30.33,2,0,4,0.01
2013-1-6,39.4,35.9,32.8,35.4,32.7,28.8,94,88,71,30.36,30.17,8,1,10,0.01
2013-1-7,42.1,32.6,24.2,30.8,26.7,22.2,93,79,59,30.52,30.32,7,1,11,0.00
2013-1-8,46.5,30.3,19.1,32.5,25.4,17.4,94,83,51,30.53,30.42,3,0,4,0.01
2013-1-9,47.9,37.7,26.4,45.9,35.4,24.7,95,92,77,30.58,30.46,2,0,4,0.03
2013-1-10,63.8,46.2,36.6,51.4,42.5,35.6,96,88,57,30.58,30.36,3,0,5,0.00
2013-1-11,55.9,51.3,44.6,52.9,48.7,41.7,96,91,79,30.35,30.11,4,0,12,0.10
2013-1-12,70.1,55.7,48.1,62.9,53.5,46.7,97,93,76,30.20,30.05,5,1,8,0.07
2013-1-13,67.4,52.7,42.0,59.1,49.9,40.9,97,90,69,30.13,30.00,1,0,3,0.17
2013-1-14,56.6,47.6,38.5,55.5,45.8,36.6,96,93,90,30.32,30.07,6,1,9,1.11
2013-1-15,46.4,42.9,38.8,45.0,41.6,37.2,96,95,93,30.24,30.03,5,1,11,1.42
2013-1-16,52.1,46.5,42.0,51.0,45.1,40.0,97,95,90,30.08,29.96,6,1,8,0.61
2013-1-17,43.8,37.7,32.3,42.0,35.6,30.8,95,92,76,30.13,30.01,5,1,10,0.47
2013-1-18,34.4,28.6,21.7,30.4,25.7,20.2,94,89,83,30.61,30.36,6,1,0,0.13
2013-1-19,39.7,26.6,17.2,32.8,24.1,15.5,100,91,73,30.55,30.27,3,1,0,0.42
2013-1-20,46.4,32.0,22.4,35.6,28.2,20.9,95,87,64,30.27,30.18,5,2,3,0.07
2013-1-21,42.0,30.6,21.3,29.7,20.1,10.5,94,69,38,30.19,30.06,9,3,15,0.01
2013-1-22,25.1,20.4,15.4,11.2,2.6,-2.8,57,46,31,30.38,30.17,11,6,22,0.00
2013-1-23,34.5,23.2,14.8,21.9,11.6,2.9,88,62,47,30.45,30.16,7,2,11,0.00
2013-1-24,36.0,24.2,16.2,27.1,12.7,2.3,87,62,37,30.56,30.13,12,4,16,0.00
2013-1-25,31.8,24.0,18.2,30.5,18.4,7.4,95,80,52,30.52,30.19,4,1,6,0.00
2013-1-26,34.4,31.2,24.5,31.0,26.7,21.7,95,83,74,30.47,30.22,7,3,13,0.00
2013-1-27,43.2,30.5,17.8,31.3,24.3,15.9,93,79,50,30.56,30.46,3,0,7,0.25
2013-1-28,40.7,34.0,32.9,35.9,32.1,31.1,94,93,83,30.47,30.42,2,0,3,0.06
2013-1-29,65.7,48.9,41.1,54.2,45.6,39.8,96,89,62,30.30,29.99,4,0,4,0.06
2013-1-30,58.4,51.5,42.9,57.0,49.9,41.3,96,94,91,29.99,29.48,6,1,12,2.19
2013-1-31,43.5,32.8,29.3,41.6,25.2,20.2,93,74,61,30.03,29.49,13,6,21,0.17
2013-2-1,33.6,19.9,11.8,29.4,11.7,2.2,93,71,50,30.48,29.95,13,4,16,0.00
2013-2-2,27.2,20.1,10.3,25.7,17.3,8.2,94,89,61,30.47,30.17,5,0,9,0.01
2013-2-3,33.7,30.4,27.2,30.3,26.8,19.6,94,87,71,30.19,29.99,9,4,15,0.07
2013-2-4,38.0,27.6,14.4,28.5,21.6,12.3,92,79,52,30.23,30.06,5,0,7,0.17
2013-2-5,32.2,31.6,31.1,29.8,28.7,28.0,91,89,88,30.06,30.02,1,0,2,0.00
2013-2-6,49.0,35.7,27.4,34.0,29.6,25.9,95,80,49,30.33,30.08,5,1,2,0.00
2013-2-7,49.7,38.4,28.1,38.8,33.0,26.1,94,82,61,30.33,30.05,5,1,7,0.00
2013-2-8,49.0,39.5,33.5,43.1,34.7,26.6,95,83,65,30.27,29.96,11,4,15,0.13
2013-2-9,47.6,33.9,24.9,26.6,23.6,19.7,90,68,34,30.41,30.27,8,2,10,0.00
2013-2-10,58.4,39.6,23.7,39.0,26.6,15.8,94,68,19,30.42,30.11,8,2,14,0.12
2013-2-11,54.2,45.8,37.3,50.2,43.0,31.9,96,90,69,30.11,30.00,6,1,8,0.11
2013-2-12,51.8,41.2,28.9,35.3,29.2,23.9,90,64,37,30.20,29.96,7,2,9,0.00
2013-2-13,45.6,39.1,35.2,43.3,36.0,31.2,94,89,82,29.98,29.65,11,2,13,0.35
2013-2-14,47.1,35.5,27.2,32.3,29.0,24.9,93,78,53,30.13,29.97,6,2,10,0.00
2013-2-15,52.3,34.4,23.8,39.2,30.4,22.3,100,86,54,30.17,30.02,9,2,13,0.15
2013-2-16,31.9,28.7,23.7,30.1,22.6,14.4,93,78,58,30.12,29.99,9,3,14,0.01
2013-2-17,30.6,22.5,16.8,16.7,12.8,6.6,92,68,37,30.35,30.08,12,5,18,0.00
2013-2-18,51.2,29.8,14.1,33.6,21.9,11.6,91,75,42,30.46,30.13,3,1,7,0.01
2013-2-19,47.3,38.1,31.9,41.7,28.7,16.4,94,72,37,30.13,29.91,10,3,22,0.17
2013-2-20,40.0,31.2,23.0,17.4,15.1,10.3,77,53,32,30.28,30.11,10,4,17,0.00
2013-2-21,49.1,32.4,16.9,33.3,20.9,14.1,89,66,32,30.35,30.18,2,0,4,0.05
2013-2-22,52.8,42.9,35.5,43.5,37.9,32.9,93,83,69,30.27,30.07,6,1,10,0.21
2013-2-23,56.8,44.9,38.2,46.8,40.9,36.4,94,86,65,30.10,29.85,3,0,7,0.03
2013-2-24,49.9,40.0,27.0,40.8,29.0,22.5,87,67,35,30.14,29.89,9,3,13,0.00
2013-2-25,50.8,35.9,23.8,31.8,26.2,21.3,92,70,44,30.18,30.06,6,1,9,0.00
2013-2-26,46.6,39.2,34.0,41.3,33.9,23.9,94,82,62,30.08,29.57,11,4,17,0.44
2013-2-27,40.1,38.1,35.9,38.0,34.2,31.9,94,86,78,29.85,29.68,7,2,13,0.03
2013-2-28,35.8,33.4,31.2,31.7,27.8,24.1,91,80,66,29.99,29.78,9,5,13,0.02
2013-3-1,38.1,33.7,31.1,32.2,29.6,27.8,92,85,72,30.01,29.94,6,2,13,0.10
2013-3-2,33.0,30.1,25.2,28.8,24.2,17.0,87,79,70,30.08,29.94,8,2,11,0.00
2013-3-3,28.9,25.6,22.6,21.7,19.3,16.8,86,77,67,30.14,30.06,7,3,13,0.00
2013-3-4,45.9,32.4,24.4,28.9,21.1,15.8,85,65,35,30.27,30.13,8,2,12,0.00
2013-3-5,44.2,37.8,30.3,42.8,34.7,26.9,95,88,77,30.13,29.65,11,1,16,0.99
2013-3-6,34.2,29.4,26.9,30.4,25.9,22.8,92,87,82,30.28,29.75,8,5,13,0.01
2013-3-7,33.5,31.1,29.0,27.7,26.0,24.5,88,81,72,30.41,30.26,6,3,11,0.03
2013-3-8,42.9,33.5,26.1,29.5,26.4,23.8,91,76,57,30.47,30.37,8,2,14,0.02
2013-3-9,64.9,40.0,22.6,35.4,27.7,19.4,94,69,18,30.43,30.26,3,0,6,0.00
2013-3-10,68.6,50.3,32.7,40.2,34.6,30.4,93,61,28,30.30,30.11,7,2,11,0.00
2013-3-11,58.4,51.0,41.3,50.1,44.2,35.6,94,78,66,30.14,29.84,9,2,13,0.39
2013-3-12,49.4,41.9,29.7,47.0,37.1,27.7,95,84,60,30.09,29.81,7,2,12,0.18
2013-3-13,37.3,32.0,27.6,31.2,25.5,17.9,93,78,57,30.32,30.08,10,4,19,0.05
2013-3-14,43.7,31.5,24.7,22.7,18.1,14.8,79,59,32,30.42,30.27,8,4,14,0.00
2013-3-15,57.1,39.0,22.5,37.8,29.2,19.5,92,70,46,30.31,29.97,7,2,12,0.00
2013-3-16,69.3,50.8,35.2,55.3,43.9,32.4,95,80,48,29.97,29.73,8,2,16,0.13
2013-3-17,55.6,49.4,43.7,49.7,46.4,39.2,96,90,80,30.05,29.90,8,2,15,0.14
2013-3-18,50.3,42.4,39.1,42.4,38.4,34.9,95,86,69,30.05,29.86,8,3,14,0.82
2013-3-19,54.0,43.6,31.8,44.1,28.2,7.8,95,60,20,30.13,29.88,12,5,19,0.16
2013-3-20,50.1,38.1,27.2,30.4,18.3,11.9,89,48,24,30.15,29.88,11,4,19,0.00
2013-3-21,33.0,25.7,19.2,26.0,13.9,10.0,77,61,44,30.11,29.91,10,5,15,0.00
2013-3-22,46.0,28.6,12.5,24.1,15.2,10.1,91,62,29,30.19,30.07,4,1,8,0.00
2013-3-23,50.2,38.6,30.5,37.4,28.9,21.5,90,69,49,30.13,29.93,4,0,5,0.00
2013-3-24,42.4,38.5,31.9,38.5,35.5,29.5,93,89,83,29.95,29.51,7,3,14,0.71
2013-3-25,36.6,32.0,29.9,34.8,28.9,26.3,94,88,76,29.96,29.55,11,4,14,0.22
2013-3-26,34.5,31.6,29.5,29.2,27.6,26.3,92,85,77,30.27,29.97,7,3,14,0.11
2013-3-27,32.1,30.8,29.8,28.3,26.1,24.4,88,82,78,30.31,30.27,6,2,9,0.00
2013-4-4,34.6,34.4,34.2,33.1,32.9,32.5,94,94,93,30.15,30.06,2,0,4,0.61
2013-4-5,58.4,42.6,34.6,41.4,35.1,31.2,96,79,38,30.15,30.03,8,2,13,0.29
2013-4-6,68.6,43.3,28.3,41.7,33.0,26.8,94,73,27,30.28,30.13,4,0,5,0.00
2013-4-7,70.4,52.6,35.7,46.4,40.1,33.0,91,66,37,30.20,30.07,7,2,12,0.00
2013-4-8,76.3,56.1,36.9,51.5,45.0,35.1,100,70,40,30.18,30.02,7,2,11,0.00
2013-4-9,80.4,61.1,42.2,56.8,49.2,40.3,94,69,36,30.21,30.06,7,2,15,0.00
2013-4-10,83.8,64.3,45.7,58.7,51.6,43.6,94,68,31,30.12,29.91,6,2,10,0.00
2013-4-11,81.9,64.4,47.7,60.3,52.9,45.5,94,70,36,29.93,29.68,6,1,9,0.17
2013-4-12,63.6,58.2,47.8,60.4,50.7,36.4,95,78,48,29.92,29.58,7,2,13,0.69
2013-4-13,68.0,51.6,36.5,42.8,37.1,30.9,93,62,27,30.09,29.92,9,3,14,0.00
2013-4-14,75.3,55.7,33.9,49.7,38.9,31.8,94,60,26,30.14,29.99,8,2,10,0.02
2013-4-15,66.4,56.6,48.9,55.6,51.4,46.7,94,83,66,30.20,30.00,6,2,11,0.16
2013-4-16,80.7,61.8,43.6,59.6,52.1,42.0,95,74,41,30.29,30.13,3,1,9,0.00
2013-4-17,66.8,59.3,52.1,61.4,56.6,50.4,95,91,77,30.29,30.13,5,0,6,0.91
2013-4-18,78.2,62.9,48.5,62.4,53.9,47.1,96,76,45,30.13,29.89,10,2,12,0.01
2013-4-19,70.1,58.4,42.9,63.2,53.8,36.8,92,85,74,29.99,29.64,7,2,10,0.40
2013-4-20,56.6,44.9,34.2,37.3,31.3,25.7,85,61,32,30.35,29.99,8,4,17,0.00
2013-4-21,62.7,46.0,29.9,37.0,31.6,27.9,93,62,31,30.51,30.36,4,1,7,0.00
2013-4-22,64.7,49.2,35.0,39.8,35.8,31.3,92,64,31,30.46,30.24,5,1,11,0.00
2013-4-23,71.7,52.2,31.7,48.8,37.5,29.4,92,62,27,30.30,30.06,4,1,9,0.00
2013-4-24,74.3,55.1,39.8,58.8,47.8,37.9,98,79,46,30.14,29.95,12,2,21,0.09
2013-4-25,62.5,47.5,33.5,39.5,35.2,26.8,92,66,28,30.39,30.22,6,2,0,0.00
2013-4-26,66.8,50.6,31.1,43.8,35.1,28.1,93,61,24,30.48,30.34,3,1,0,0.00
2013-4-27,62.6,54.4,48.5,52.5,47.8,43.6,94,79,57,30.40,30.21,3,0,0,0.20
2013-4-28,57.1,52.2,48.3,54.4,50.4,46.9,95,94,89,30.22,29.98,2,0,2,0.57
2013-4-29,65.0,55.5,48.6,57.3,51.7,46.9,96,88,69,30.07,29.99,4,1,6,0.03
2013-4-30,78.8,60.1,42.7,60.4,51.4,41.4,96,76,36,30.17,30.02,3,0,8,0.00
2013-5-1,69.7,60.6,50.1,55.5,52.0,48.1,94,74,54,30.28,30.17,5,2,11,0.00
2013-5-2,69.4,60.3,55.2,56.5,52.2,49.3,84,75,60,30.30,30.20,5,2,10,0.00
2013-5-3,58.7,56.1,54.7,52.1,49.8,48.6,84,79,77,30.23,30.17,4,1,8,0.00
2013-5-4,61.9,54.3,47.0,47.7,42.0,36.7,76,64,40,30.11,30.00,5,3,0,0.00
2013-5-5,53.9,51.0,46.1,50.2,43.5,33.2,92,76,53,30.07,29.90,7,4,14,0.16
2013-5-6,63.0,54.8,47.3,56.9,51.3,45.4,94,88,77,29.93,29.84,7,2,15,0.44
2013-5-7,61.7,53.5,48.5,55.3,50.3,46.7,95,89,69,29.98,29.89,7,1,11,0.05
2013-5-8,61.7,55.0,49.8,57.6,52.7,48.1,95,92,82,30.07,29.93,5,1,10,0.27
2013-5-9,72.8,58.9,51.5,62.3,54.9,50.4,96,88,57,30.15,30.05,4,1,10,0.08
2013-5-10,76.6,61.4,50.5,62.8,56.3,49.1,96,85,53,30.12,29.95,5,1,10,0.01
2013-5-11,71.4,60.0,55.1,62.0,57.0,51.1,96,90,66,29.98,29.83,7,1,10,0.23
2013-5-12,58.3,50.1,39.2,51.3,39.8,32.3,93,71,39,30.14,29.92,8,3,15,0.07
2013-5-13,59.8,45.7,32.5,41.7,33.0,27.0,95,66,29,30.25,30.14,7,2,13,0.00
2013-5-14,72.6,51.9,31.1,54.1,41.3,29.3,95,71,39,30.31,30.06,5,1,8,0.00
2013-5-15,83.4,63.9,46.6,64.0,54.9,45.0,96,76,47,30.14,29.95,5,1,10,0.00
2013-5-16,78.3,62.7,48.8,62.5,55.6,47.2,96,80,48,30.05,29.97,4,1,8,0.00
2013-5-17,80.6,64.1,52.0,64.3,57.6,50.3,95,82,48,30.12,30.03,3,0,5,0.18
2013-5-18,69.5,63.1,57.7,66.2,61.0,56.3,96,93,86,30.13,30.03,1,0,1,0.03
2013-5-19,78.6,65.2,60.1,70.0,62.2,58.0,96,90,68,30.09,29.98,4,0,4,1.24
2013-5-20,73.9,63.5,58.9,68.9,61.5,57.3,96,93,82,30.15,30.03,2,0,4,0.53
2013-5-21,84.0,68.0,56.7,72.0,63.1,55.3,96,85,58,30.09,29.91,5,0,10,0.01
2013-5-22,83.1,66.9,56.2,70.0,61.1,54.5,95,83,56,29.98,29.86,4,1,6,0.01
2013-5-23,77.1,64.9,58.4,67.1,60.4,55.7,96,86,58,29.95,29.84,7,1,8,0.17
2013-5-24,61.1,54.6,41.8,56.0,46.1,37.7,92,75,44,30.28,29.94,9,4,16,0.13
2013-5-25,66.2,50.8,36.6,45.7,39.9,32.8,95,71,30,30.41,30.27,7,2,12,0.00
2013-5-26,70.3,58.0,48.8,54.3,48.5,45.0,92,73,48,30.32,30.22,6,1,11,0.00
2013-5-27,80.3,63.0,45.5,64.2,54.5,43.9,95,76,49,30.29,30.10,3,0,8,0.00
2013-5-28,82.3,67.2,52.4,65.7,59.1,50.7,95,78,48,30.21,30.08,5,1,10,0.00
2013-5-29,85.4,68.2,52.7,67.3,59.9,51.0,96,78,44,30.23,30.11,3,0,6,0.00
2013-5-30,86.8,69.6,53.5,68.7,60.0,51.8,95,75,44,30.25,30.09,3,0,4,0.00
2013-5-31,86.0,69.7,54.4,70.5,61.5,52.7,95,77,49,30.20,30.04,4,0,6,0.00
2013-6-1,87.5,71.6,59.0,69.6,62.9,57.0,95,77,45,30.10,29.93,4,0,7,0.00
2013-6-2,68.0,65.1,62.2,66.4,63.1,59.6,95,93,90,30.00,29.88,2,0,2,1.39
2013-6-3,76.3,67.1,59.6,66.7,62.3,57.3,96,85,57,30.02,29.88,8,1,14,0.31
2013-6-4,80.2,65.4,52.2,66.0,58.5,50.6,96,81,52,30.09,30.00,2,0,6,0.00
2013-6-5,82.8,67.5,53.5,69.9,61.3,52.1,96,82,55,30.12,29.94,3,0,5,0.02
2013-6-6,79.3,69.2,61.9,70.5,64.7,60.3,95,86,68,29.99,29.76,3,0,6,0.01
2013-6-7,73.6,66.4,60.2,67.3,63.4,58.2,95,90,69,29.87,29.69,5,0,9,0.05
2013-6-8,80.2,66.5,57.9,67.3,61.3,56.5,95,84,52,30.11,29.85,3,0,7,0.05
2013-6-9,84.8,67.7,56.6,70.9,62.4,54.9,95,85,51,30.17,30.01,3,0,5,0.19
2013-6-10,77.6,68.4,64.4,69.8,65.1,62.3,95,90,63,30.04,29.86,4,0,8,0.58
2013-6-11,78.0,67.4,60.4,68.7,63.0,58.4,95,87,65,30.03,29.90,5,1,10,0.32
2013-6-12,88.5,72.3,58.0,76.9,66.8,56.6,95,84,56,30.05,29.89,5,1,10,0.00
2013-6-13,80.3,70.1,59.7,73.2,66.3,56.4,95,88,75,29.90,29.67,9,2,23,0.69
2013-6-14,72.9,63.1,55.0,62.2,57.2,53.0,95,82,57,30.10,29.86,5,1,8,0.00
2013-6-15,80.6,63.9,50.8,66.2,57.1,49.1,96,81,50,30.20,30.06,4,0,9,0.01
2013-6-16,80.5,67.4,55.6,69.9,62.6,53.9,95,85,66,30.14,30.01,3,0,8,0.00
2013-6-17,80.5,69.4,63.5,72.8,66.5,61.7,95,91,72,30.04,29.92,3,0,7,1.14
2013-6-18,70.4,66.1,59.7,67.0,64.1,58.0,95,93,86,29.97,29.84,3,0,4,0.86
2013-6-19,77.7,65.9,56.9,68.9,62.4,55.5,98,89,67,30.13,29.96,2,0,0,0.01
2013-6-20,82.6,67.5,56.9,71.0,62.3,55.5,96,85,54,30.22,30.13,1,0,5,0.01
2013-6-21,84.9,70.0,59.3,71.0,63.7,57.6,95,82,49,30.26,30.14,2,0,4,0.00
2013-6-22,83.8,69.2,56.6,68.5,60.7,54.9,95,77,42,30.25,30.10,1,0,4,0.00
2013-6-23,85.7,70.4,56.8,71.7,63.1,55.1,95,80,45,30.22,30.10,3,0,6,0.00
2013-6-24,81.2,70.5,61.9,72.9,65.9,60.2,95,86,69,30.21,30.08,3,0,6,0.00
2013-6-25,80.0,69.9,62.4,74.5,66.8,60.7,95,90,79,30.15,30.00,3,0,5,0.10
2013-6-26,78.8,69.7,62.6,73.6,66.8,60.8,95,91,81,30.04,29.90,4,0,5,0.07
2013-6-27,74.1,67.9,64.4,71.4,66.1,62.6,95,94,89,29.92,29.76,2,0,4,0.31
2013-6-28,81.8,71.0,62.0,74.0,67.9,60.2,96,90,71,29.80,29.61,4,0,6,0.02
2013-6-29,82.1,69.2,59.7,68.6,63.5,58.0,95,83,51,29.73,29.64,4,1,7,0.01
2013-6-30,84.9,69.7,57.7,70.8,62.5,56.3,95,80,42,29.82,29.71,3,0,5,0.00
2013-7-1,82.1,70.5,63.8,72.9,66.0,62.0,95,87,63,29.95,29.79,4,0,4,0.01
2013-7-2,81.6,70.5,63.4,73.4,66.6,61.8,96,88,66,30.11,29.93,3,0,5,0.00
2013-7-3,72.6,66.8,64.1,70.0,65.2,62.4,96,94,91,30.21,30.10,2,0,5,0.01
2013-7-4,80.5,69.8,63.4,73.9,67.1,61.9,96,91,74,30.23,30.14,5,0,6,0.25
2013-7-5,81.4,71.5,64.4,75.1,68.3,62.9,96,90,72,30.20,30.11,2,0,5,0.04
2013-7-6,84.3,72.5,64.3,73.8,67.5,62.5,95,85,58,30.20,30.07,3,0,5,0.04
2013-7-7,74.3,69.9,67.2,71.3,67.7,64.7,95,93,86,30.17,30.08,6,0,10,0.55
2013-7-8,83.9,71.1,64.7,74.2,66.3,62.3,95,86,57,30.22,30.11,4,0,5,0.00
2013-7-9,86.2,72.8,63.2,75.8,67.8,61.4,95,85,62,30.18,30.05,3,0,9,0.00
2013-7-10,83.2,71.7,66.8,75.1,68.6,64.9,95,90,71,30.10,29.94,4,0,4,0.07
2013-7-11,77.6,71.8,67.4,72.7,69.0,65.3,95,91,79,29.97,29.87,2,0,3,0.01
2013-7-12,78.6,69.4,62.5,70.0,64.6,60.3,95,85,64,30.03,29.91,5,0,8,0.01
2013-7-13,81.4,70.0,60.2,70.2,64.4,58.5,95,83,59,30.13,30.02,2,1,7,0.00
2013-7-14,83.3,73.0,67.5,73.0,68.6,64.8,94,87,64,30.29,30.11,3,0,5,0.08
2013-7-15,86.4,73.1,62.5,73.8,67.2,60.7,95,83,59,30.34,30.24,2,0,6,0.00
2013-7-16,88.1,73.6,61.1,75.6,67.6,59.4,95,83,57,30.36,30.23,1,0,3,0.00
2013-7-17,85.2,73.9,65.7,76.4,69.9,63.9,95,88,71,30.30,30.15,2,0,6,0.03
2013-7-18,89.1,74.7,67.7,78.7,70.5,66.2,95,88,61,30.22,30.06,2,0,6,0.02
2013-7-19,85.0,73.8,67.9,76.6,70.8,66.3,95,90,70,30.11,29.97,3,0,5,0.07
2013-7-20,85.2,72.3,66.0,75.6,69.1,64.5,96,90,67,30.03,29.90,4,0,6,1.69
2013-7-21,80.2,71.1,66.4,76.1,68.8,64.9,96,93,80,30.01,29.93,3,0,8,0.52
2013-7-22,82.7,71.8,66.9,74.5,68.7,65.1,95,90,71,29.99,29.81,3,0,6,0.15
2013-7-23,81.2,72.1,66.7,73.7,68.7,64.6,95,89,73,29.87,29.77,3,0,8,0.37
2013-7-24,81.0,72.8,66.5,72.9,68.2,63.5,95,86,64,29.89,29.79,5,0,7,0.00
2013-7-25,79.1,68.5,58.6,67.4,61.6,56.3,95,80,54,30.08,29.89,4,1,7,0.00
2013-7-26,83.8,68.0,53.6,71.2,62.0,51.8,95,82,57,30.10,30.00,3,0,6,0.10
2013-7-27,75.8,68.8,65.0,71.4,66.3,63.0,95,92,82,30.04,29.89,1,0,1,0.07
2013-7-28,80.7,68.8,57.7,69.1,64.1,55.7,95,86,60,30.06,29.91,3,0,7,0.23
2013-7-29,77.3,63.5,52.0,62.8,56.7,50.4,95,81,47,30.25,30.06,4,1,7,0.00
2013-7-30,59.3,54.9,53.7,57.6,53.2,52.0,95,94,92,30.27,30.23,0,0,1,0.00
2013-7-31,66.7,63.5,60.1,64.9,61.6,58.1,95,94,90,30.20,30.00,0,0,0,0.58
2013-8-1,78.8,71.7,63.6,71.2,66.8,61.5,96,85,70,29.99,29.91,7,1,10,0.04
2013-8-2,80.1,67.6,59.3,69.1,62.7,57.7,95,85,60,30.07,29.97,2,0,4,0.01
2013-8-3,81.5,68.8,59.1,71.1,64.7,57.1,95,87,66,30.06,29.96,3,0,4,0.00
2013-8-4,79.4,70.1,60.3,67.4,64.2,58.0,95,83,53,30.08,29.97,5,1,10,0.38
2013-8-5,81.6,67.4,57.3,69.1,61.3,55.6,95,82,53,30.10,29.98,2,0,4,0.00
2013-8-6,81.8,69.4,59.8,72.1,65.0,57.8,94,86,65,30.04,29.97,1,0,3,0.00
2013-8-7,78.2,69.7,65.7,72.6,67.1,63.8,94,91,81,30.05,29.99,2,0,5,0.81
2013-8-8,79.3,71.6,66.8,74.2,69.1,65.0,95,92,83,30.04,29.98,2,0,3,0.04
2013-8-9,85.3,73.6,66.5,76.5,69.9,64.7,95,89,70,30.08,29.97,4,0,7,0.10
2013-8-10,76.1,71.3,68.2,73.8,69.2,66.4,95,93,91,30.12,30.06,1,0,4,0.40
2013-8-11,80.2,71.6,67.9,74.7,69.1,66.1,95,92,81,30.16,30.04,4,0,6,0.20
2013-8-12,79.1,71.6,65.8,74.4,68.9,64.0,95,91,79,30.10,29.96,3,0,5,1.26
2013-8-13,74.9,68.8,63.7,71.8,66.7,61.3,95,93,88,29.99,29.85,5,0,8,0.24
2013-8-14,72.0,63.6,54.2,61.2,56.9,51.8,94,80,52,30.14,29.93,5,1,8,0.00
2013-8-15,75.8,61.2,49.7,64.8,56.2,48.0,95,85,63,30.17,30.06,2,0,4,0.00
2013-8-16,77.8,63.5,52.1,66.7,58.3,50.4,95,84,58,30.17,30.07,2,0,5,0.01
2013-8-17,72.1,62.9,53.2,64.5,58.4,51.5,95,86,71,30.21,30.14,4,1,7,0.04
2013-8-18,78.8,67.8,62.1,70.5,64.2,59.9,94,89,68,30.21,30.11,2,0,4,0.43
2013-8-19,76.9,68.4,64.3,71.1,65.5,62.2,94,91,79,30.18,30.07,2,0,3,0.06
2013-8-20,80.7,70.6,63.3,73.2,66.9,61.5,94,89,72,30.18,30.09,2,0,4,0.00
2013-8-21,79.9,69.6,61.4,73.5,66.4,59.4,94,90,76,30.22,30.11,6,0,10,0.66
2013-8-22,81.2,67.9,59.8,74.0,64.8,58.1,95,90,72,30.19,30.05,2,0,7,0.06
2013-8-23,78.8,68.0,63.1,72.8,65.1,61.3,95,91,75,30.12,30.00,3,0,8,0.27
2013-8-24,76.6,66.6,56.8,66.1,60.5,54.5,94,82,57,30.33,30.12,2,0,9,0.01
2013-8-25,76.9,63.2,52.0,66.2,57.6,50.3,94,83,51,30.42,30.28,2,0,4,0.00
2013-8-26,79.3,64.7,53.8,70.3,60.7,52.1,95,87,71,30.36,30.15,1,0,5,0.00
2013-8-27,81.1,69.2,60.6,72.9,65.6,58.6,94,89,69,30.18,30.03,3,0,9,0.01
2013-8-28,84.2,73.2,65.9,74.6,68.9,63.5,93,87,70,30.07,29.93,3,0,1,0.01
2013-8-29,84.5,74.5,66.8,73.7,69.5,64.2,93,85,63,29.99,29.92,4,0,7,0.01
2013-8-30,85.0,72.3,63.4,73.6,67.4,61.3,94,85,61,30.03,29.90,3,0,6,0.00
2013-8-31,78.8,68.9,64.8,73.2,66.2,62.4,93,91,82,29.96,29.88,5,0,8,0.57
2013-9-1,73.1,67.6,63.8,69.9,65.1,61.6,94,92,89,29.94,29.84,1,0,2,1.07
2013-9-2,83.0,72.1,65.8,74.7,68.0,63.4,93,87,71,29.94,29.81,4,0,6,0.04
2013-9-3,79.0,68.8,58.0,69.2,63.7,55.4,93,84,58,30.04,29.81,7,1,10,0.01
2013-9-4,79.4,64.2,55.1,67.5,59.0,53.1,94,84,61,30.17,30.03,2,0,5,0.01
2013-9-5,77.6,63.5,53.5,67.3,58.3,51.5,94,84,58,30.21,30.12,3,0,4,0.00
2013-9-6,79.9,65.3,56.5,68.8,60.2,54.5,94,85,60,30.22,30.09,2,0,5,0.01
2013-9-7,79.6,65.8,55.1,69.0,60.8,52.9,93,85,60,30.14,30.00,3,0,5,0.00
2013-9-8,80.0,67.4,59.0,70.9,63.1,56.7,93,87,66,30.04,29.97,2,0,4,0.00
2013-9-9,82.9,69.9,61.6,73.7,65.4,59.1,93,86,65,30.16,30.05,1,0,2,0.01
2013-9-10,83.4,71.2,62.2,74.4,66.4,59.5,92,85,69,30.25,30.13,2,0,5,0.00
2013-9-11,82.8,71.7,65.0,74.0,67.0,62.0,92,85,70,30.23,30.09,5,0,10,0.00
2013-9-12,83.1,70.1,63.7,74.0,65.7,61.0,92,87,72,30.10,29.88,3,0,7,0.41
2013-9-13,69.7,65.6,64.3,63.0,61.3,55.1,92,87,61,29.91,29.85,6,1,11,0.00
2013-9-14,70.4,55.7,43.8,58.9,49.6,41.9,94,82,54,30.17,30.00,1,0,0,0.00
2013-9-15,75.0,58.2,46.3,64.1,53.4,44.4,94,85,55,30.25,30.14,2,0,4,0.01
2013-9-16,71.8,60.5,52.6,64.0,56.8,50.3,94,88,75,30.26,30.15,5,0,6,0.00
2013-9-17,71.7,58.7,48.3,60.6,53.3,46.4,94,83,60,30.32,30.24,3,1,9,0.01
2013-9-18,69.6,59.1,50.1,61.1,55.4,47.9,93,88,66,30.29,30.19,2,0,6,0.01
2013-9-19,66.7,63.2,61.0,64.0,60.6,58.6,92,91,90,30.20,30.10,0,0,0,0.59
2013-9-20,77.8,67.1,62.4,71.1,63.7,59.9,93,89,77,30.11,29.92,3,0,5,0.01
2013-9-21,66.3,62.4,58.1,63.9,59.7,55.5,92,91,89,29.92,29.75,3,0,4,0.49
2013-9-22,68.0,57.8,50.4,59.6,53.5,47.9,93,86,64,29.99,29.82,4,0,6,0.00
2013-9-23,70.6,56.0,44.8,60.5,51.7,42.9,93,86,63,30.09,29.99,4,0,9,0.01
2013-9-24,72.7,58.5,48.8,64.4,54.4,46.6,93,87,64,30.12,29.94,2,0,4,0.01
2013-9-25,66.1,59.8,53.9,62.4,56.8,51.3,92,90,85,29.97,29.87,2,0,8,0.07
2013-9-26,70.8,60.9,52.7,60.9,56.0,50.1,92,85,61,30.08,29.91,2,0,4,0.01
2013-9-27,72.4,58.8,50.6,63.8,54.2,48.4,93,85,61,30.20,30.08,1,0,3,0.00
2013-9-28,71.5,57.0,45.9,62.5,52.6,43.7,96,86,64,30.28,30.16,2,0,4,0.00
2013-9-29,51.2,49.5,48.3,48.7,47.1,45.8,92,92,91,30.21,30.19,0,0,0,0.00
2013-9-30,70.4,60.4,52.7,62.5,56.3,50.1,92,87,71,30.12,30.01,1,0,0,0.00
2013-10-1,74.4,60.1,52.4,63.6,55.9,49.6,92,86,65,30.19,30.08,2,0,0,0.01
2013-10-2,73.8,60.0,51.8,65.3,55.9,49.3,93,87,71,30.23,30.10,1,0,0,0.01
2013-10-3,75.9,62.1,53.9,67.0,57.9,51.0,91,87,69,30.18,30.08,1,0,3,0.00
2013-10-4,78.3,63.3,55.8,68.1,58.9,52.9,92,86,66,30.22,30.10,3,0,7,0.00
2013-10-5,76.4,63.9,55.7,68.3,59.5,53.1,92,86,75,30.20,30.03,1,0,2,0.01
2013-10-6,77.4,64.4,56.1,68.9,59.8,53.2,91,85,68,30.06,29.86,1,0,3,0.00
2013-10-7,64.9,57.6,45.0,59.6,52.4,42.3,92,83,59,30.14,29.80,6,1,8,0.73
2013-10-8,64.2,50.7,38.5,52.7,44.6,36.4,93,81,54,30.27,30.12,5,1,10,0.01
2013-10-9,64.8,50.2,39.1,50.1,43.7,37.0,93,80,51,30.31,30.19,3,0,13,0.00
2013-10-10,66.0,50.4,36.9,57.7,45.8,34.8,93,85,65,30.22,30.11,2,0,5,0.00
2013-10-11,72.1,57.5,45.1,56.9,50.1,42.9,92,78,43,30.12,30.01,6,1,11,0.01
2013-10-12,68.4,61.2,55.1,61.3,57.0,51.9,89,86,75,30.14,30.02,3,0,6,0.00
2013-10-13,70.0,61.3,54.8,64.0,57.4,51.9,92,87,78,30.25,30.14,2,0,4,0.01
2013-10-14,72.4,62.1,53.1,61.8,56.6,49.9,89,83,65,30.27,30.16,2,0,8,0.00
2013-10-15,70.0,57.4,46.7,60.1,52.0,44.2,92,83,59,30.22,30.06,2,0,2,0.00
2013-10-16,66.6,56.8,47.1,59.0,52.6,44.6,91,86,74,30.10,30.00,3,0,4,0.00
2013-10-17,63.5,58.7,52.1,59.6,55.1,47.3,89,88,83,30.01,29.84,8,1,11,0.15
2013-10-18,62.2,48.5,38.9,51.6,43.8,36.5,92,85,58,30.12,30.00,2,0,5,0.01
2013-10-19,58.9,51.0,45.9,51.9,46.7,41.3,91,85,74,30.04,29.91,7,1,15,0.00
2013-10-20,59.2,43.6,32.1,43.5,37.3,30.0,92,80,44,30.17,30.03,2,0,6,0.00
2013-10-21,64.3,44.8,30.9,48.9,38.9,28.9,93,82,47,30.22,30.06,4,0,11,0.00
2013-10-22,58.5,49.9,41.2,51.3,45.6,38.8,92,86,73,30.08,29.86,4,1,7,0.07
2013-10-23,50.4,43.8,37.2,47.4,39.9,33.8,92,86,70,30.10,29.78,8,2,14,0.10
2013-10-24,44.9,37.9,30.5,37.5,33.9,28.2,92,86,69,30.27,30.09,5,1,7,0.06
2013-10-25,39.2,35.2,28.0,34.8,30.5,25.7,91,83,68,30.49,30.27,5,1,8,0.01
2013-10-26,52.6,36.2,21.8,39.4,29.0,19.8,92,78,42,30.44,30.17,5,1,11,0.01
2013-10-27,62.4,47.8,34.2,45.7,39.9,31.7,91,76,50,30.20,30.09,6,1,9,0.00
2013-10-28,58.9,50.4,42.6,54.7,47.3,39.9,92,89,82,30.31,30.17,2,0,3,0.03
2013-10-29,66.5,56.2,51.9,55.8,51.5,49.0,92,85,59,30.37,30.26,3,0,7,0.04
2013-10-30,65.9,56.6,51.3,60.2,53.1,48.2,91,88,79,30.30,30.18,3,0,7,0.45
2013-10-31,64.9,56.6,51.0,59.5,53.1,48.1,91,88,75,30.18,29.70,1,0,2,0.00
2013-11-1,69.7,59.7,46.2,58.3,52.9,43.4,90,80,50,29.80,29.66,6,1,10,0.24
2013-11-2,57.4,47.3,39.4,46.7,39.3,34.4,97,76,45,30.08,29.77,9,2,17,0.00
2013-11-3,52.0,42.3,30.7,40.0,35.2,28.4,96,77,51,30.45,30.08,5,1,8,0.00
2013-11-4,56.7,40.5,27.0,38.2,31.5,25.0,93,74,40,30.57,30.44,3,0,6,0.00
2013-11-5,60.7,45.0,36.2,38.5,34.1,29.0,90,69,31,30.58,30.43,3,0,8,0.00
2013-11-6,70.2,49.7,34.9,54.1,43.3,32.8,93,81,52,30.45,30.14,4,0,4,0.00
2013-11-7,52.6,45.4,35.6,50.0,40.8,30.5,91,84,63,30.26,30.04,10,2,15,0.29
2013-11-8,46.7,36.0,26.4,31.9,27.3,22.8,90,72,41,30.42,30.26,9,3,15,0.00
2013-11-9,53.1,35.3,22.8,33.0,27.0,20.8,92,75,39,30.43,30.30,4,0,6,0.00
2013-11-10,60.0,39.9,26.8,41.0,29.1,23.9,93,70,29,30.40,30.25,9,2,16,0.00
2013-11-11,60.1,38.4,24.2,31.6,25.8,20.0,92,67,23,30.41,30.22,3,1,5,0.00
2013-11-12,47.1,34.4,27.4,39.8,27.4,16.5,85,75,62,30.60,30.17,6,2,10,0.01
2013-11-13,37.1,27.9,20.4,21.7,19.0,16.8,92,70,51,30.70,30.58,8,1,12,0.00
2013-11-14,50.5,28.6,16.3,25.6,19.9,14.1,98,74,30,30.61,30.41,4,1,6,0.00
2013-11-15,53.4,36.4,21.7,45.0,30.7,19.1,93,82,38,30.44,30.29,3,0,4,0.18
2013-11-16,63.4,48.2,40.8,54.2,44.7,39.2,94,88,68,30.31,30.17,3,0,4,0.00
2013-11-17,66.8,51.3,38.9,57.5,47.8,36.8,93,88,68,30.21,29.86,1,0,2,0.26
2013-11-18,59.6,51.2,40.4,56.4,34.6,29.3,90,54,35,30.12,29.87,10,4,13,0.19
2013-11-19,48.2,38.8,28.7,30.9,27.3,24.6,87,65,42,30.34,30.11,7,2,15,0.00
2013-11-20,50.1,38.9,32.7,31.1,28.2,26.3,83,67,41,30.48,30.32,6,1,8,0.00
2013-11-21,62.7,45.0,28.1,49.9,39.0,25.6,91,80,61,30.54,30.37,4,0,5,0.00
2013-11-22,58.3,52.8,47.2,54.0,49.4,44.4,92,88,82,30.39,30.18,6,0,14,0.23
2013-11-23,52.1,41.3,28.1,49.0,34.3,15.8,92,76,58,30.39,30.19,9,4,19,0.00
2013-11-24,28.0,22.9,16.4,18.2,10.7,2.5,82,60,35,30.63,30.38,10,4,13,0.00
2013-11-25,39.5,28.0,16.0,29.5,15.4,5.3,92,62,24,30.63,30.35,3,0,4,0.00
2013-11-26,43.5,38.4,31.6,41.6,36.1,27.9,93,92,86,30.35,29.75,8,1,10,2.04
2013-11-27,38.2,28.3,22.7,35.2,23.7,14.7,91,83,71,30.34,29.77,9,4,13,0.02
2013-11-28,31.6,23.5,16.5,23.6,18.1,13.3,91,80,65,30.60,30.34,6,1,7,0.05
2013-11-29,38.4,25.2,15.5,29.1,21.3,13.3,92,86,64,30.73,30.60,3,0,4,0.01
2013-11-30,41.9,28.8,20.7,30.5,24.0,18.7,92,83,58,30.68,30.43,3,0,4,0.00
2013-12-1,46.5,32.0,19.2,35.7,27.6,17.3,92,84,61,30.43,30.12,3,0,8,0.01
2013-12-2,48.7,41.6,36.5,41.0,37.0,33.8,91,84,68,30.12,29.88,1,0,2,0.00
2013-12-3,57.7,44.5,36.9,48.0,40.2,34.5,92,85,68,29.98,29.90,2,0,3,0.00
2013-12-4,63.8,47.1,34.7,54.5,42.9,32.6,93,86,67,30.09,29.95,2,0,4,0.00
2013-12-5,60.6,48.9,40.5,53.9,45.3,38.0,92,88,77,30.11,30.00,1,0,2,0.00
2013-12-6,55.8,50.0,39.7,52.9,47.0,37.0,92,89,86,30.16,29.92,10,2,16,0.72
2013-12-7,39.7,35.7,32.6,37.0,32.1,29.2,90,87,82,30.51,30.16,6,2,9,0.00
2013-12-8,37.7,36.7,34.8,35.3,33.4,30.7,92,88,84,30.46,30.18,8,3,15,0.50
2013-12-9,46.8,41.5,37.0,44.0,39.2,34.6,92,91,90,30.22,30.09,2,0,3,0.22
2013-12-10,40.8,33.1,22.3,38.7,29.8,20.2,92,87,75,30.42,30.01,8,2,17,0.25
2013-12-11,39.6,26.2,17.1,27.6,21.7,14.9,92,84,60,30.56,30.41,9,1,11,0.00
2013-12-12,33.0,27.2,18.8,22.8,16.6,3.9,84,66,30,30.56,30.46,8,3,15,0.00
2013-12-13,39.5,26.1,15.3,27.1,19.8,12.9,91,78,48,30.49,30.34,3,0,4,0.00
2013-12-14,40.3,36.8,33.1,37.8,32.6,24.5,92,85,62,30.35,29.83,5,0,8,0.67
2013-12-15,42.7,34.6,30.6,40.5,30.8,26.6,92,86,78,30.20,29.81,8,4,13,0.05
2013-12-16,41.9,32.2,27.0,35.8,28.3,25.0,92,86,69,30.29,30.17,6,2,8,0.00
2013-12-17,49.0,36.1,25.7,38.6,30.6,23.2,93,82,61,30.23,29.98,11,2,15,0.21
2013-12-18,38.8,30.1,23.8,25.8,22.8,20.1,92,75,51,30.38,30.22,8,2,12,0.00
2013-12-19,48.8,31.3,21.0,33.4,25.6,19.0,92,81,49,30.43,30.26,3,0,3,0.00
2013-12-20,54.4,38.4,28.1,40.4,33.2,26.1,93,83,53,30.29,30.17,1,0,2,0.00
2013-12-21,61.3,49.7,39.7,53.7,45.2,36.7,92,85,69,30.17,29.91,1,0,2,0.00
2013-12-22,59.8,54.0,50.3,56.6,51.3,48.1,92,90,89,30.09,29.89,8,0,8,1.16
2013-12-23,51.5,43.4,31.9,49.4,40.1,26.7,93,88,81,30.33,30.01,6,1,15,0.32
2013-12-24,32.0,27.2,16.9,27.1,20.6,13.7,88,76,61,30.56,30.32,8,3,11,0.00
2013-12-25,38.9,22.8,13.6,23.0,16.5,11.0,91,79,43,30.58,30.42,5,0,5,0.00
2013-12-26,40.9,27.6,20.3,28.3,22.4,18.1,92,82,54,30.50,30.40,6,1,9,0.00
2013-12-27,41.5,26.7,18.2,26.0,20.9,16.0,92,80,47,30.58,30.48,3,0,5,0.00
2013-12-28,44.0,30.0,19.0,34.6,25.7,17.1,92,85,61,30.54,30.21,2,0,4,0.28
2013-12-29,44.5,40.8,36.1,42.3,38.6,33.7,97,92,91,30.21,29.86,4,1,8,1.07
2013-12-30,40.0,35.8,32.2,37.6,32.9,29.7,91,89,84,30.25,30.04,6,2,0,0.01
2013-12-31,38.8,30.8,23.2,30.5,25.7,21.2,92,82,55,30.47,30.23,9,2,0,0.00
2014-1-1,41.8,28.1,20.4,29.1,23.3,18.4,92,83,53,30.46,30.20,3,0,8,0.00
2014-1-2,37.0,29.4,18.0,34.9,26.8,12.9,92,90,75,30.20,29.77,15,2,27,0.13